createdAt,value
2019-02-12T00:02:17.430Z,1.10
2019-02-12T00:04:50.539Z,1.02
2019-02-12T00:07:24.754Z,1.21
2019-02-12T00:09:56.537Z,0.93
2019-02-12T00:12:28.509Z,0.90
2019-02-12T00:14:59.723Z,0.95
2019-02-12T00:17:33.695Z,0.92
2019-02-12T00:20:07.478Z,0.90
2019-02-12T00:22:40.573Z,0.87
2019-02-12T00:25:12.559Z,0.81
2019-02-12T00:27:44.175Z,0.96
2019-02-12T00:30:15.633Z,0.81
2019-02-12T00:32:47.598Z,0.76
2019-02-12T00:35:21.593Z,0.87
2019-02-12T00:37:52.773Z,0.78
2019-02-12T00:40:23.985Z,0.80
2019-02-12T00:42:57.599Z,0.77
2019-02-12T00:45:28.812Z,0.87
2019-02-12T00:48:00.020Z,1.03
2019-02-12T00:50:31.840Z,0.93
2019-02-12T00:53:03.864Z,0.88
2019-02-12T00:55:35.669Z,0.87
2019-02-12T00:58:06.974Z,0.88
2019-02-12T01:00:38.907Z,0.79
2019-02-12T01:03:11.898Z,0.77
2019-02-12T01:05:44.696Z,0.77
2019-02-12T01:08:16.912Z,0.87
2019-02-12T01:10:48.181Z,0.83
2019-02-12T01:13:21.925Z,0.74
2019-02-12T01:15:53.118Z,0.81
2019-02-12T01:18:28.482Z,0.77
2019-02-12T01:21:00.881Z,0.83
2019-02-12T01:23:34.791Z,0.83
2019-02-12T01:26:10.549Z,0.87
2019-02-12T01:28:42.622Z,0.80
2019-02-12T01:31:15.003Z,0.89
2019-02-12T01:33:48.040Z,1.00
2019-02-12T01:36:21.531Z,0.85
2019-02-12T01:38:58.524Z,0.93
2019-02-12T01:41:32.075Z,0.93
2019-02-12T01:44:03.335Z,1.08
2019-02-12T01:46:36.126Z,0.87
2019-02-12T01:49:10.195Z,0.84
2019-02-12T01:51:42.907Z,0.84
2019-02-12T01:54:19.475Z,0.88
2019-02-12T01:56:51.076Z,0.87
2019-02-12T01:59:24.258Z,0.91
2019-02-12T02:01:55.455Z,0.85
2019-02-12T02:04:29.017Z,0.84
2019-02-12T02:07:00.218Z,0.85
2019-02-12T02:09:34.847Z,0.94
2019-02-12T02:12:10.077Z,0.98
2019-02-12T02:14:42.008Z,0.81
2019-02-12T02:17:16.025Z,0.82
2019-02-12T02:19:47.235Z,0.77
2019-02-12T02:22:18.446Z,0.78
2019-02-12T02:24:52.141Z,0.89
2019-02-12T02:27:24.180Z,0.78
2019-02-12T02:30:21.230Z,0.77
2019-02-12T02:32:52.426Z,0.76
2019-02-12T02:35:23.681Z,0.78
2019-02-12T02:37:57.167Z,0.84
2019-02-12T02:40:31.222Z,0.68
2019-02-12T02:43:05.137Z,0.68
2019-02-12T02:45:40.677Z,0.83
2019-02-12T02:48:13.176Z,0.81
2019-02-12T02:50:44.718Z,0.92
2019-02-12T02:53:18.298Z,0.73
2019-02-12T02:55:53.755Z,0.77
2019-02-12T02:58:26.300Z,0.69
2019-02-12T03:01:00.273Z,0.75
2019-02-12T03:03:34.123Z,0.73
2019-02-12T03:06:05.939Z,0.88
2019-02-12T03:08:39.440Z,0.78
2019-02-12T03:11:12.274Z,0.77
2019-02-12T03:13:44.477Z,0.86
2019-02-12T03:16:19.270Z,0.84
2019-02-12T03:18:53.395Z,0.92
2019-02-12T03:21:28.219Z,0.82
2019-02-12T03:24:02.479Z,0.76
2019-02-12T03:26:36.497Z,0.73
2019-02-12T03:29:10.714Z,0.73
2019-02-12T03:31:44.574Z,0.63
2019-02-12T03:34:15.764Z,0.68
2019-02-12T03:36:46.985Z,0.71
2019-02-12T03:39:18.203Z,0.64
2019-02-12T03:41:51.420Z,0.76
2019-02-12T03:44:25.516Z,0.63
2019-02-12T03:46:56.746Z,0.60
2019-02-12T03:49:30.393Z,0.68
2019-02-12T03:52:12.598Z,0.78
2019-02-12T03:54:37.517Z,0.65
2019-02-12T03:57:09.827Z,0.59
2019-02-12T03:59:41.930Z,0.55
2019-02-12T04:02:15.783Z,0.58
2019-02-12T04:04:47.497Z,0.58
2019-02-12T04:07:19.511Z,0.43
2019-02-12T04:09:52.057Z,0.42
2019-02-12T04:12:25.735Z,0.49
2019-02-12T04:14:57.678Z,0.38
2019-02-12T04:17:31.275Z,0.34
2019-02-12T04:20:04.704Z,0.48
2019-02-12T04:22:37.535Z,0.65
2019-02-12T04:25:10.879Z,0.70
2019-02-12T04:27:44.385Z,0.72
2019-02-12T04:30:20.359Z,0.65
2019-02-12T04:32:52.756Z,0.69
2019-02-12T04:35:23.985Z,0.53
2019-02-12T04:37:55.274Z,0.61
2019-02-12T04:40:29.653Z,0.43
2019-02-12T04:43:02.780Z,0.58
2019-02-12T04:45:36.736Z,0.54
2019-02-12T04:48:10.707Z,0.54
2019-02-12T04:50:43.657Z,0.62
2019-02-12T04:53:15.689Z,0.66
2019-02-12T04:55:48.502Z,0.59
2019-02-12T04:58:21.894Z,0.54
2019-02-12T05:00:54.736Z,0.69
2019-02-12T05:03:25.944Z,0.69
2019-02-12T05:05:58.456Z,0.69
2019-02-12T05:09:08.549Z,0.66
2019-02-12T05:11:42.187Z,0.57
2019-02-12T05:14:14.961Z,0.60
2019-02-12T05:16:47.910Z,0.56
2019-02-12T05:19:19.876Z,0.54
2019-02-12T05:21:53.891Z,0.47
2019-02-12T05:24:33.676Z,0.59
2019-02-12T05:27:04.871Z,0.49
2019-02-12T05:29:36.960Z,0.39
2019-02-12T05:32:10.996Z,0.41
2019-02-12T05:34:44.603Z,0.44
2019-02-12T05:37:16.348Z,0.47
2019-02-12T05:39:48.012Z,0.49
2019-02-12T05:42:20.862Z,0.45
2019-02-12T05:44:52.059Z,0.46
2019-02-12T05:47:26.152Z,0.57
2019-02-12T05:50:02.009Z,0.47
2019-02-12T05:52:37.755Z,0.56
2019-02-12T05:55:10.535Z,0.48
2019-02-12T05:57:43.374Z,0.42
2019-02-12T06:00:17.252Z,0.45
2019-02-12T06:02:51.206Z,0.57
2019-02-12T06:05:27.618Z,0.44
2019-02-12T06:08:00.574Z,0.47
2019-02-12T06:10:32.505Z,0.43
2019-02-12T06:13:06.144Z,0.47
2019-02-12T06:15:40.762Z,0.37
2019-02-12T06:18:14.239Z,0.49
2019-02-12T06:20:45.501Z,0.50
2019-02-12T06:23:18.990Z,0.34
2019-02-12T06:25:51.232Z,0.22
2019-02-12T06:28:23.196Z,0.27
2019-02-12T06:30:54.451Z,0.13
2019-02-12T06:33:28.198Z,0.23
2019-02-12T06:36:01.338Z,0.23
2019-02-12T06:38:35.376Z,0.26
2019-02-12T06:41:09.593Z,0.33
2019-02-12T06:43:43.318Z,0.29
2019-02-12T06:46:14.495Z,0.30
2019-02-12T06:48:49.954Z,0.21
2019-02-12T06:51:22.633Z,0.00
2019-02-12T06:53:54.421Z,0.07
2019-02-12T06:56:29.140Z,0.10
2019-02-12T06:59:03.129Z,0.15
2019-02-12T07:01:35.341Z,0.20
2019-02-12T07:04:20.602Z,0.22
2019-02-12T07:07:19.250Z,0.08
2019-02-12T07:09:57.639Z,-0.01
2019-02-12T07:12:53.060Z,0.00
2019-02-12T07:15:46.771Z,-0.01
2019-02-12T07:19:00.376Z,0.02
2019-02-12T07:21:55.835Z,-0.09
2019-02-12T07:25:17.125Z,0.09
2019-02-12T07:28:35.654Z,0.06
2019-02-12T07:31:41.595Z,0.08
2019-02-12T07:35:00.866Z,0.05
2019-02-12T07:38:19.341Z,0.06
2019-02-12T07:41:20.706Z,0.06
2019-02-12T07:44:31.793Z,0.06
2019-02-12T07:47:45.492Z,0.07
2019-02-12T07:50:49.876Z,0.18
2019-02-12T07:53:34.244Z,0.24
2019-02-12T07:56:32.422Z,0.30
2019-02-12T07:59:30.079Z,0.24
2019-02-12T08:02:33.883Z,0.03
2019-02-12T08:05:43.046Z,0.35
2019-02-12T08:09:07.274Z,0.23
2019-02-12T08:12:13.875Z,0.48
2019-02-12T08:15:17.723Z,0.31
2019-02-12T08:18:37.613Z,0.37
2019-02-12T08:21:31.470Z,0.28
2019-02-12T08:24:47.602Z,0.48
2019-02-12T08:28:13.840Z,0.49
2019-02-12T08:31:24.492Z,0.34
2019-02-12T08:34:18.487Z,0.21
2019-02-12T08:37:17.996Z,0.25
2019-02-12T08:40:30.453Z,0.30
2019-02-12T08:43:46.945Z,0.36
2019-02-12T08:46:58.278Z,0.47
2019-02-12T08:50:12.272Z,0.57
2019-02-12T08:52:56.530Z,0.47
2019-02-12T08:56:19.685Z,0.51
2019-02-12T08:59:17.047Z,0.59
2019-02-12T09:02:15.263Z,0.59
2019-02-12T09:05:28.494Z,0.61
2019-02-12T09:08:28.930Z,0.64
2019-02-12T09:11:38.584Z,0.60
2019-02-12T09:14:48.994Z,0.64
2019-02-12T09:17:58.071Z,0.68
2019-02-12T09:21:16.404Z,0.84
2019-02-12T09:24:32.309Z,0.59
2019-02-12T09:27:14.839Z,0.74
2019-02-12T09:30:34.458Z,0.69
2019-02-12T09:33:34.623Z,0.71
2019-02-12T09:36:35.838Z,0.58
2019-02-12T09:39:47.969Z,0.70
2019-02-12T09:43:04.906Z,0.72
2019-02-12T09:46:25.997Z,0.86
2019-02-12T09:49:40.910Z,0.80
2019-02-12T09:53:08.383Z,0.75
2019-02-12T09:56:05.698Z,0.78
2019-02-12T09:59:01.450Z,0.97
2019-02-12T10:01:59.891Z,0.77
2019-02-12T10:05:14.528Z,0.83
2019-02-12T10:08:28.646Z,0.92
2019-02-12T10:11:54.550Z,0.85
2019-02-12T10:15:05.332Z,0.82
2019-02-12T10:18:05.960Z,0.83
2019-02-12T10:21:08.718Z,0.74
2019-02-12T10:24:19.033Z,0.77
2019-02-12T10:26:47.697Z,0.82
2019-02-12T10:29:33.107Z,0.93
2019-02-12T10:32:08.733Z,0.88
2019-02-12T10:34:40.634Z,0.87
2019-02-12T10:37:12.128Z,0.99
2019-02-12T10:39:45.188Z,0.81
2019-02-12T10:42:19.276Z,0.91
2019-02-12T10:44:53.029Z,0.90
2019-02-12T10:47:24.345Z,0.99
2019-02-12T10:49:56.184Z,0.97
2019-02-12T10:52:30.069Z,0.88
2019-02-12T10:55:03.244Z,0.98
2019-02-12T10:57:34.753Z,1.10
2019-02-12T11:00:12.508Z,0.94
2019-02-12T11:02:45.720Z,0.94
2019-02-12T11:05:17.453Z,0.83
2019-02-12T11:07:48.969Z,0.95
2019-02-12T11:10:22.413Z,0.87
2019-02-12T11:12:54.977Z,0.85
2019-02-12T11:15:26.186Z,0.92
2019-02-12T11:17:58.978Z,0.92
2019-02-12T11:20:30.431Z,0.78
2019-02-12T11:23:04.487Z,0.77
2019-02-12T11:25:38.458Z,0.66
2019-02-12T11:28:12.481Z,0.71
2019-02-12T11:30:44.905Z,0.75
2019-02-12T11:33:17.534Z,0.64
2019-02-12T11:35:48.709Z,0.71
2019-02-12T11:38:24.192Z,0.79
2019-02-12T11:40:56.780Z,0.83
2019-02-12T11:43:30.715Z,0.87
2019-02-12T11:46:04.808Z,0.67
2019-02-12T11:48:38.737Z,0.58
2019-02-12T11:51:10.428Z,0.48
2019-02-12T11:53:43.810Z,0.54
2019-02-12T11:56:19.249Z,0.67
2019-02-12T11:58:51.652Z,0.74
2019-02-12T12:01:25.999Z,0.73
2019-02-12T12:04:01.656Z,0.76
2019-02-12T12:06:35.360Z,0.81
2019-02-12T12:09:12.710Z,0.77
2019-02-12T12:11:45.062Z,0.71
2019-02-12T12:14:18.538Z,0.66
2019-02-12T12:16:49.741Z,0.78
2019-02-12T12:19:23.846Z,0.63
2019-02-12T12:21:57.637Z,0.58
2019-02-12T12:24:33.320Z,0.49
2019-02-12T12:27:04.801Z,0.47
2019-02-12T12:29:38.784Z,0.48
2019-02-12T12:32:10.384Z,0.67
2019-02-12T12:34:41.721Z,0.65
2019-02-12T12:37:15.827Z,0.63
2019-02-12T12:39:48.837Z,0.53
2019-02-12T12:42:22.858Z,0.67
2019-02-12T12:44:54.810Z,0.71
2019-02-12T12:47:28.887Z,0.79
2019-02-12T12:50:02.012Z,0.73
2019-02-12T12:52:33.231Z,0.94
2019-02-12T12:55:06.422Z,1.03
2019-02-12T12:57:41.845Z,0.99
2019-02-12T13:00:12.477Z,1.05
2019-02-12T13:02:45.916Z,0.92
2019-02-12T13:05:19.924Z,0.77
2019-02-12T13:07:52.146Z,0.73
2019-02-12T13:10:25.136Z,0.82
2019-02-12T13:12:56.366Z,0.72
2019-02-12T13:15:30.189Z,0.68
2019-02-12T13:18:03.759Z,0.67
2019-02-12T13:20:34.952Z,0.70
2019-02-12T13:23:10.636Z,0.77
2019-02-12T13:25:44.825Z,0.71
2019-02-12T13:28:16.852Z,0.86
2019-02-12T13:30:48.059Z,0.90
2019-02-12T13:33:20.853Z,0.96
2019-02-12T13:35:53.101Z,1.09
2019-02-12T13:38:27.093Z,1.08
2019-02-12T13:41:02.614Z,1.15
2019-02-12T13:43:36.080Z,1.11
2019-02-12T13:46:10.631Z,1.12
2019-02-12T13:48:44.097Z,1.15
2019-02-12T13:51:17.918Z,1.22
2019-02-12T13:53:51.401Z,1.21
2019-02-12T13:56:25.222Z,1.34
2019-02-12T13:59:00.793Z,1.12
2019-02-12T14:01:33.078Z,1.22
2019-02-12T14:04:06.255Z,1.06
2019-02-12T14:06:40.251Z,1.04
2019-02-12T14:09:14.266Z,0.94
2019-02-12T14:11:45.553Z,0.98
2019-02-12T14:14:17.132Z,0.99
2019-02-12T14:16:48.368Z,0.90
2019-02-12T14:19:21.285Z,0.95
2019-02-12T14:21:52.491Z,0.98
2019-02-12T14:24:23.665Z,1.02
2019-02-12T14:26:54.875Z,1.19
2019-02-12T14:29:28.310Z,1.14
2019-02-12T14:32:02.217Z,1.32
2019-02-12T14:34:35.241Z,1.18
2019-02-12T14:37:07.436Z,1.14
2019-02-12T14:39:38.715Z,1.25
2019-02-12T14:42:11.541Z,1.31
2019-02-12T14:44:45.536Z,1.30
2019-02-12T14:47:16.851Z,1.14
2019-02-12T14:49:48.061Z,1.23
2019-02-12T14:52:21.590Z,1.15
2019-02-12T14:54:55.588Z,1.36
2019-02-12T14:57:29.596Z,1.33
2019-02-12T15:00:01.789Z,1.42
2019-02-12T15:02:34.644Z,1.25
2019-02-12T15:05:10.793Z,1.36
2019-02-12T15:07:42.866Z,1.25
2019-02-12T15:10:16.751Z,1.26
2019-02-12T15:12:48.386Z,1.19
2019-02-12T15:15:28.876Z,1.39
2019-02-12T15:18:01.489Z,1.38
2019-02-12T15:20:35.632Z,1.26
2019-02-12T15:23:10.569Z,1.23
2019-02-12T15:25:45.220Z,1.23
2019-02-12T15:28:16.668Z,1.21
2019-02-12T15:30:48.199Z,1.23
2019-02-12T15:33:21.474Z,1.30
2019-02-12T15:35:52.694Z,1.23
2019-02-12T15:38:26.695Z,1.27
2019-02-12T15:41:02.186Z,1.30
2019-02-12T15:43:34.977Z,1.32
2019-02-12T15:46:06.532Z,1.24
2019-02-12T15:48:39.573Z,1.33
2019-02-12T15:51:10.960Z,1.31
2019-02-12T15:53:42.212Z,1.27
2019-02-12T15:56:13.435Z,1.37
2019-02-12T15:58:45.415Z,1.22
2019-02-12T16:01:17.736Z,1.39
2019-02-12T16:03:51.841Z,1.37
2019-02-12T16:06:24.636Z,1.18
2019-02-12T16:09:00.201Z,1.27
2019-02-12T16:11:32.680Z,1.25
2019-02-12T16:14:03.960Z,1.13
2019-02-12T16:16:35.171Z,1.06
2019-02-12T16:19:07.854Z,1.12
2019-02-12T16:21:39.739Z,1.29
2019-02-12T16:24:11.879Z,1.18
2019-02-12T16:26:44.909Z,1.18
2019-02-12T16:29:16.109Z,1.14
2019-02-12T16:31:48.896Z,1.24
2019-02-12T16:34:20.858Z,1.12
2019-02-12T16:36:55.173Z,1.19
2019-02-12T16:39:27.988Z,1.24
2019-02-12T16:41:59.518Z,1.28
2019-02-12T16:44:32.924Z,1.41
2019-02-12T16:47:06.862Z,1.14
2019-02-12T16:49:41.664Z,1.12
2019-02-12T16:52:20.719Z,1.03
2019-02-12T16:54:48.890Z,0.91
2019-02-12T16:57:20.079Z,0.73
2019-02-12T16:59:53.991Z,0.79
2019-02-12T17:02:28.399Z,0.95
2019-02-12T17:05:02.034Z,0.95
2019-02-12T17:07:36.082Z,0.94
2019-02-12T17:10:10.371Z,1.03
2019-02-12T17:12:44.063Z,0.96
2019-02-12T17:15:18.050Z,0.91
2019-02-12T17:17:49.492Z,0.95
2019-02-12T17:20:23.145Z,1.03
2019-02-12T17:22:55.388Z,1.12
2019-02-12T17:25:28.045Z,0.98
2019-02-12T17:28:01.161Z,0.95
2019-02-12T17:30:32.727Z,1.02
2019-02-12T17:33:05.519Z,1.06
2019-02-12T17:35:37.140Z,1.08
2019-02-12T17:38:11.316Z,1.10
2019-02-12T17:40:43.233Z,1.05
2019-02-12T17:43:16.215Z,0.99
2019-02-12T17:45:49.214Z,1.19
2019-02-12T17:48:21.431Z,1.16
2019-02-12T17:50:55.225Z,1.04
2019-02-12T17:53:26.481Z,1.03
2019-02-12T17:56:00.637Z,1.10
2019-02-12T17:58:34.219Z,1.07
2019-02-12T18:01:06.174Z,1.04
2019-02-12T18:03:39.221Z,1.15
2019-02-12T18:06:13.594Z,1.14
2019-02-12T18:08:44.771Z,1.01
2019-02-12T18:11:18.228Z,0.99
2019-02-12T18:13:52.223Z,0.92
2019-02-12T18:16:25.438Z,0.91
2019-02-12T18:19:02.147Z,0.87
2019-02-12T18:21:33.339Z,0.85
2019-02-12T18:24:07.441Z,0.98
2019-02-12T18:26:38.764Z,0.98
2019-02-12T18:29:10.261Z,0.95
2019-02-12T18:31:43.449Z,0.87
2019-02-12T18:34:15.661Z,0.78
2019-02-12T18:36:51.095Z,0.79
2019-02-12T18:39:23.555Z,0.73
2019-02-12T18:41:55.327Z,0.87
2019-02-12T18:44:27.383Z,0.75
2019-02-12T18:46:59.384Z,0.73
2019-02-12T18:49:32.520Z,0.81
2019-02-12T18:52:03.735Z,0.86
2019-02-12T18:54:34.910Z,0.72
2019-02-12T18:57:06.192Z,0.64
2019-02-12T18:59:39.441Z,0.56
2019-02-12T19:02:13.434Z,0.62
2019-02-12T19:04:45.951Z,0.61
2019-02-12T19:07:18.673Z,0.59
2019-02-12T19:09:51.562Z,0.71
2019-02-12T19:12:24.716Z,0.67
2019-02-12T19:14:58.074Z,0.51
2019-02-12T19:17:29.584Z,0.55
2019-02-12T19:20:02.799Z,0.61
2019-02-12T19:22:46.895Z,0.51
2019-02-12T19:25:21.372Z,0.62
2019-02-12T19:27:53.619Z,0.65
2019-02-12T19:30:27.615Z,0.82
2019-02-12T19:33:03.518Z,0.79
2019-02-12T19:35:36.243Z,0.72
2019-02-12T19:38:09.703Z,0.86
2019-02-12T19:40:42.653Z,0.74
2019-02-12T19:43:15.550Z,0.77
2019-02-12T19:45:49.029Z,0.80
2019-02-12T19:48:22.919Z,0.90
2019-02-12T19:50:55.888Z,0.77
2019-02-12T19:53:27.804Z,0.64
2019-02-12T19:55:59.060Z,0.71
2019-02-12T19:58:31.957Z,0.74
2019-02-12T20:01:05.529Z,0.79
2019-02-12T20:03:37.747Z,0.96
2019-02-12T20:06:12.205Z,0.84
2019-02-12T20:08:45.818Z,0.75
2019-02-12T20:11:19.975Z,0.81
2019-02-12T20:13:54.372Z,0.81
2019-02-12T20:16:28.830Z,0.82
2019-02-12T20:19:02.168Z,0.72
2019-02-12T20:21:37.747Z,0.79
2019-02-12T20:24:12.130Z,0.75
2019-02-12T20:26:47.038Z,0.70
2019-02-12T20:29:20.888Z,0.84
2019-02-12T20:31:56.077Z,0.91
2019-02-12T20:34:29.036Z,0.90
2019-02-12T20:37:00.392Z,0.70
2019-02-12T20:39:31.789Z,0.92
2019-02-12T20:42:05.129Z,0.79
2019-02-12T20:44:42.885Z,0.92
2019-02-12T20:47:17.197Z,0.97
2019-02-12T20:49:49.036Z,0.78
2019-02-12T20:52:20.976Z,0.74
2019-02-12T20:54:55.948Z,0.80
2019-02-12T20:57:30.892Z,0.87
2019-02-12T21:00:08.884Z,0.91
2019-02-12T21:02:41.565Z,0.74
2019-02-12T21:05:15.191Z,0.69
2019-02-12T21:07:46.976Z,0.71
2019-02-12T21:10:21.725Z,0.75
2019-02-12T21:12:56.876Z,0.75
2019-02-12T21:15:29.725Z,0.72
2019-02-12T21:18:04.606Z,0.57
2019-02-12T21:20:38.554Z,0.63
2019-02-12T21:23:12.601Z,0.55
2019-02-12T21:25:45.318Z,0.63
2019-02-12T21:28:19.430Z,0.55
2019-02-12T21:30:54.203Z,0.58
2019-02-12T21:33:28.803Z,0.60
2019-02-12T21:36:01.445Z,0.62
2019-02-12T21:38:39.152Z,0.62
2019-02-12T21:41:12.958Z,0.61
2019-02-12T21:43:46.369Z,0.57
2019-02-12T21:46:20.787Z,0.68
2019-02-12T21:48:52.399Z,0.72
2019-02-12T21:51:25.657Z,0.61
2019-02-12T21:54:02.043Z,0.58
2019-02-12T21:56:33.353Z,0.75
2019-02-12T21:59:06.299Z,0.68
2019-02-12T22:01:39.272Z,0.65
2019-02-12T22:04:11.352Z,0.79
2019-02-12T22:06:45.354Z,0.72
2019-02-12T22:09:19.375Z,0.73
2019-02-12T22:11:50.796Z,0.81
2019-02-12T22:14:23.592Z,0.67
2019-02-12T22:16:55.479Z,0.65
2019-02-12T22:19:31.007Z,0.70
2019-02-12T22:22:03.426Z,0.81
2019-02-12T22:24:37.468Z,0.68
2019-02-12T22:27:16.287Z,0.60
2019-02-12T22:29:49.410Z,0.77
2019-02-12T22:32:22.428Z,0.65
2019-02-12T22:34:55.598Z,0.71
2019-02-12T22:37:27.584Z,0.79
2019-02-12T22:39:58.771Z,0.76
2019-02-12T22:42:32.026Z,0.74
2019-02-12T22:45:03.376Z,0.63
2019-02-12T22:47:34.543Z,0.79
2019-02-12T22:50:10.245Z,0.74
2019-02-12T22:52:42.041Z,0.69
2019-02-12T22:55:15.944Z,0.70
2019-02-12T22:58:41.889Z,0.69
2019-02-12T23:01:15.697Z,0.85
2019-02-12T23:03:49.885Z,0.73
2019-02-12T23:06:23.611Z,0.78
2019-02-12T23:08:55.670Z,0.69
2019-02-12T23:11:29.936Z,0.71
2019-02-12T23:14:02.565Z,0.81
2019-02-12T23:16:35.723Z,0.71
2019-02-12T23:19:10.197Z,0.72
2019-02-12T23:21:44.043Z,0.71
2019-02-12T23:24:17.678Z,0.80
2019-02-12T23:26:48.888Z,0.67
2019-02-12T23:29:23.657Z,0.61
2019-02-12T23:31:56.614Z,0.64
2019-02-12T23:34:29.802Z,0.74
2019-02-12T23:37:03.772Z,0.60
2019-02-12T23:39:37.904Z,0.68
2019-02-12T23:42:09.135Z,0.62
2019-02-12T23:44:44.393Z,0.62
2019-02-12T23:47:18.374Z,0.66
2019-02-12T23:49:51.622Z,0.70
2019-02-12T23:52:24.831Z,0.68
2019-02-12T23:54:58.646Z,0.70
2019-02-12T23:57:31.447Z,0.70
